Terminal Aerodrome Forecast
Issued by NWS Norman, OK

Home | Current Version | Previous Version | Text Only | Print | Product List | Glossary On
Versions: 1 2 3 4 5 6 7 8 9 10 11 12 13 14 15 16 17 18 19 20 21 22 23 24 25 26 27
000
FTUS44 KOUN 191120
TAFOKC
TAF
KOKC 191120Z 1912/2012 01006KT 3/4SM -DZ BR VV002
     FM191600 02004KT 3SM BR OVC004
     FM192100 03005KT 5SM BR OVC012
     FM200800 13004KT 3SM BR OVC007=

USA.gov is the U.S. government's official web portal to all federal, state and local government web resources and services.